Terminal Aerodrome Forecast
Issued by NWS Charleston, WV

Current Version | Previous Version | Graphics & Text | Print | Product List | Glossary On
Versions: 1 2 3 4 5 6 7 8 9 10 11 12 13 14 15 16 17 18 19 20 21 22 23 24 25 26 27
107
FTUS41 KRLX 271139
TAFEKN
TAF
KEKN 271139Z 2712/2812 VRB03KT P6SM BKN025
     FM271500 25007G17KT P6SM BKN035
     FM272000 26007KT P6SM BKN070
     FM280400 VRB02KT P6SM VCSH BKN040=

USA.gov is the U.S. government's official web portal to all federal, state and local government web resources and services.